createdAt,value
2017-11-09T00:00:32.782Z,0.00
2017-11-09T00:01:32.809Z,0.00
2017-11-09T00:02:32.751Z,0.00
2017-11-09T00:03:32.722Z,0.00
2017-11-09T00:04:32.699Z,0.00
2017-11-09T00:05:32.681Z,0.00
2017-11-09T00:06:32.711Z,0.00
2017-11-09T00:07:32.695Z,0.00
2017-11-09T00:08:32.639Z,0.00
2017-11-09T00:09:32.597Z,0.00
2017-11-09T00:10:32.580Z,0.00
2017-11-09T00:11:32.564Z,0.00
2017-11-09T00:12:32.596Z,0.00
2017-11-09T00:13:32.517Z,0.00
2017-11-09T00:14:32.499Z,0.00
2017-11-09T00:15:32.482Z,0.00
2017-11-09T00:16:32.471Z,0.00
2017-11-09T00:17:32.482Z,0.00
2017-11-09T00:18:32.418Z,0.00
2017-11-09T00:19:32.397Z,0.00
2017-11-09T00:20:32.379Z,0.00
2017-11-09T00:21:32.356Z,0.00
2017-11-09T00:22:32.376Z,0.00
2017-11-09T00:23:32.319Z,0.00
2017-11-09T00:24:32.296Z,0.00
2017-11-09T00:25:32.277Z,0.00
2017-11-09T00:26:32.262Z,0.00
2017-11-09T00:27:32.274Z,0.00
2017-11-09T00:28:32.215Z,0.00
2017-11-09T00:29:32.206Z,0.00
2017-11-09T00:30:32.180Z,0.00
2017-11-09T00:31:32.161Z,0.00
2017-11-09T00:32:32.188Z,0.00
2017-11-09T00:33:32.124Z,0.00
2017-11-09T00:34:32.097Z,0.00
2017-11-09T00:35:32.077Z,0.00
2017-11-09T00:36:32.061Z,0.00
2017-11-09T00:37:32.088Z,0.00
2017-11-09T00:38:32.013Z,0.00
2017-11-09T00:39:32.000Z,0.00
2017-11-09T00:40:31.975Z,0.00
2017-11-09T00:41:31.958Z,0.00
2017-11-09T00:42:31.969Z,0.00
2017-11-09T00:43:31.919Z,0.00
2017-11-09T00:44:31.902Z,0.00
2017-11-09T00:45:31.909Z,0.00
2017-11-09T00:46:31.856Z,0.00
2017-11-09T00:47:31.836Z,0.00
2017-11-09T00:48:31.815Z,0.00
2017-11-09T00:49:31.797Z,0.00
2017-11-09T00:50:31.820Z,0.00
2017-11-09T00:51:31.783Z,0.00
2017-11-09T00:52:31.754Z,0.00
2017-11-09T00:53:31.714Z,0.00
2017-11-09T00:54:31.695Z,0.00
2017-11-09T00:55:31.733Z,0.00
2017-11-09T00:56:31.654Z,0.00
2017-11-09T00:57:31.633Z,0.00
2017-11-09T00:58:31.623Z,0.00
2017-11-09T00:59:31.595Z,0.00
2017-11-09T01:00:31.613Z,0.00
2017-11-09T01:01:31.555Z,0.00
2017-11-09T01:02:31.535Z,0.00
2017-11-09T01:03:31.546Z,0.00
2017-11-09T01:04:31.492Z,0.00
2017-11-09T01:05:31.474Z,0.00
2017-11-09T01:06:31.489Z,0.00
2017-11-09T01:07:31.437Z,0.00
2017-11-09T01:08:31.450Z,0.00
2017-11-09T01:09:31.393Z,0.00
2017-11-09T01:10:31.379Z,0.00
2017-11-09T01:11:31.397Z,0.00
2017-11-09T01:12:31.331Z,0.00
2017-11-09T01:13:31.314Z,0.00
2017-11-09T01:14:31.294Z,0.00
2017-11-09T01:15:31.272Z,0.00
2017-11-09T01:16:31.291Z,0.00
2017-11-09T01:17:31.233Z,0.00
2017-11-09T01:18:31.210Z,0.00
2017-11-09T01:19:31.226Z,0.00
2017-11-09T01:20:31.176Z,0.00
2017-11-09T01:21:31.189Z,0.00
2017-11-09T01:22:31.133Z,0.00
2017-11-09T01:23:31.113Z,0.00
2017-11-09T01:24:31.137Z,0.00
2017-11-09T01:25:31.076Z,0.00
2017-11-09T01:26:31.052Z,0.00
2017-11-09T01:27:31.037Z,0.00
2017-11-09T01:28:31.015Z,0.00
2017-11-09T01:29:31.035Z,0.00
2017-11-09T01:30:30.972Z,0.00
2017-11-09T01:31:30.951Z,0.00
2017-11-09T01:32:30.934Z,0.00
2017-11-09T01:33:30.928Z,0.00
2017-11-09T01:34:30.974Z,0.00
2017-11-09T01:35:30.873Z,0.00
2017-11-09T01:36:30.854Z,0.00
2017-11-09T01:37:30.837Z,0.00
2017-11-09T01:38:30.818Z,0.00
2017-11-09T01:39:30.832Z,0.00
2017-11-09T01:40:30.769Z,0.00
2017-11-09T01:41:30.753Z,0.00
2017-11-09T01:42:30.759Z,0.00
2017-11-09T01:43:30.711Z,0.00
2017-11-09T01:44:30.727Z,0.00
2017-11-09T01:45:30.670Z,0.00
2017-11-09T01:46:30.653Z,0.00
2017-11-09T01:47:30.676Z,0.00
2017-11-09T01:48:30.612Z,0.00
2017-11-09T01:49:30.590Z,0.00
2017-11-09T01:50:30.575Z,0.00
2017-11-09T01:51:30.554Z,0.00
2017-11-09T01:52:30.567Z,0.00
2017-11-09T01:53:30.555Z,0.00
2017-11-09T01:54:30.496Z,0.00
2017-11-09T01:55:30.486Z,0.00
2017-11-09T01:56:30.452Z,0.00
2017-11-09T01:57:40.331Z,0.00
2017-11-09T01:58:30.445Z,0.00
2017-11-09T01:59:30.394Z,0.00
2017-11-09T02:00:30.372Z,0.00
2017-11-09T02:01:30.349Z,0.00
2017-11-09T02:02:30.333Z,0.00
2017-11-09T02:03:30.347Z,0.00
2017-11-09T02:04:30.290Z,0.00
2017-11-09T02:05:30.272Z,0.00
2017-11-09T02:06:30.250Z,0.00
2017-11-09T02:07:30.272Z,0.00
2017-11-09T02:08:30.208Z,0.00
2017-11-09T02:09:30.190Z,0.00
2017-11-09T02:10:30.173Z,0.00
2017-11-09T02:11:30.180Z,0.00
2017-11-09T02:12:30.130Z,0.00
2017-11-09T02:13:30.107Z,0.00
2017-11-09T02:14:30.143Z,0.00
2017-11-09T02:15:30.072Z,0.00
2017-11-09T02:16:30.050Z,0.00
2017-11-09T02:17:30.026Z,0.00
2017-11-09T02:18:30.007Z,0.00
2017-11-09T02:19:30.023Z,0.00
2017-11-09T02:20:29.968Z,0.00
2017-11-09T02:21:29.946Z,0.00
2017-11-09T02:22:29.967Z,0.00
2017-11-09T02:23:29.906Z,0.00
2017-11-09T02:24:29.888Z,0.00
2017-11-09T02:25:29.868Z,0.00
2017-11-09T02:26:29.849Z,0.00
2017-11-09T02:27:29.872Z,0.00
2017-11-09T02:28:29.806Z,0.00
2017-11-09T02:29:29.786Z,0.00
2017-11-09T02:30:29.778Z,0.00
2017-11-09T02:31:29.744Z,0.00
2017-11-09T02:32:29.766Z,0.00
2017-11-09T02:33:29.749Z,0.00
2017-11-09T02:34:29.685Z,0.00
2017-11-09T02:35:29.665Z,0.00
2017-11-09T02:36:29.646Z,0.00
2017-11-09T02:37:29.627Z,0.00
2017-11-09T02:38:29.637Z,0.00
2017-11-09T02:39:29.584Z,0.00
2017-11-09T02:40:29.564Z,0.00
2017-11-09T02:41:29.548Z,0.00
2017-11-09T02:42:29.521Z,0.00
2017-11-09T02:43:29.537Z,0.00
2017-11-09T02:44:29.536Z,0.00
2017-11-09T02:45:29.464Z,0.00
2017-11-09T02:46:29.439Z,0.00
2017-11-09T02:47:29.422Z,0.00
2017-11-09T02:48:29.400Z,0.00
2017-11-09T02:49:29.416Z,0.00
2017-11-09T02:50:39.383Z,0.00
2017-11-09T02:51:29.340Z,0.00
2017-11-09T02:52:29.321Z,0.00
2017-11-09T02:53:29.300Z,0.00
2017-11-09T02:54:29.305Z,0.00
2017-11-09T02:55:29.257Z,0.00
2017-11-09T02:56:29.282Z,0.00
2017-11-09T02:57:29.217Z,0.00
2017-11-09T02:58:29.194Z,0.00
2017-11-09T02:59:29.193Z,0.00
2017-11-09T03:00:29.166Z,0.00
2017-11-09T03:01:29.176Z,0.00
2017-11-09T03:02:29.149Z,0.00
2017-11-09T03:03:29.094Z,0.00
2017-11-09T03:04:29.083Z,0.00
2017-11-09T03:05:29.057Z,0.00
2017-11-09T03:06:29.034Z,0.00
2017-11-09T03:07:29.052Z,0.00
2017-11-09T03:08:28.994Z,0.00
2017-11-09T03:09:28.971Z,0.00
2017-11-09T03:10:28.983Z,0.00
2017-11-09T03:11:28.939Z,0.00
2017-11-09T03:12:28.912Z,0.00
2017-11-09T03:13:28.891Z,0.00
2017-11-09T03:14:28.894Z,0.00
2017-11-09T03:15:28.883Z,0.00
2017-11-09T03:16:28.829Z,0.00
2017-11-09T03:17:28.808Z,0.00
2017-11-09T03:18:28.793Z,0.00
2017-11-09T03:19:28.809Z,0.00
2017-11-09T03:20:28.794Z,0.00
2017-11-09T03:21:28.729Z,0.00
2017-11-09T03:22:28.710Z,0.00
2017-11-09T03:23:28.688Z,0.00
2017-11-09T03:24:28.669Z,0.00
2017-11-09T03:25:28.702Z,0.00
2017-11-09T03:26:28.631Z,0.00
2017-11-09T03:27:28.609Z,0.00
2017-11-09T03:28:28.586Z,0.00
2017-11-09T03:29:28.566Z,0.00
2017-11-09T03:30:28.582Z,0.00
2017-11-09T03:31:28.531Z,0.00
2017-11-09T03:32:28.507Z,0.00
2017-11-09T03:33:28.488Z,0.00
2017-11-09T03:34:28.471Z,0.00
2017-11-09T03:35:28.482Z,0.00
2017-11-09T03:36:28.430Z,0.00
2017-11-09T03:37:28.408Z,0.00
2017-11-09T03:38:28.388Z,0.00
2017-11-09T03:41:06.890Z,0.00
2017-11-09T03:42:06.821Z,0.00
2017-11-09T03:43:06.801Z,0.00
2017-11-09T03:44:06.780Z,0.00
2017-11-09T03:45:06.759Z,0.00
2017-11-09T03:46:06.791Z,0.00
2017-11-09T03:47:06.719Z,0.00
2017-11-09T03:48:06.698Z,0.00
2017-11-09T03:49:06.680Z,0.00
2017-11-09T03:50:06.655Z,0.00
2017-11-09T03:51:06.673Z,0.00
2017-11-09T03:52:06.625Z,0.00
2017-11-09T03:53:06.597Z,0.00
2017-11-09T03:54:06.580Z,0.00
2017-11-09T03:55:06.565Z,0.00
2017-11-09T03:56:06.578Z,0.00
2017-11-09T03:57:06.561Z,0.00
2017-11-09T03:58:06.513Z,0.00
2017-11-09T03:59:06.488Z,0.00
2017-11-09T04:00:06.457Z,0.00
2017-11-09T04:01:06.450Z,0.00
2017-11-09T04:02:06.470Z,0.00
2017-11-09T04:03:06.395Z,0.00
2017-11-09T04:04:06.377Z,0.00
2017-11-09T04:05:06.352Z,0.00
2017-11-09T04:06:06.345Z,0.00
2017-11-09T04:07:06.354Z,0.00
2017-11-09T04:08:06.332Z,0.00
2017-11-09T04:09:06.276Z,0.00
2017-11-09T04:10:06.287Z,0.00
2017-11-09T04:11:06.234Z,0.00
2017-11-09T04:12:06.214Z,0.00
2017-11-09T04:13:06.199Z,0.00
2017-11-09T04:14:06.172Z,0.00
2017-11-09T04:15:06.199Z,0.00
2017-11-09T04:16:06.141Z,0.00
2017-11-09T04:17:06.112Z,0.00
2017-11-09T04:18:06.097Z,0.00
2017-11-09T04:19:06.072Z,0.00
2017-11-09T04:20:06.089Z,0.00
2017-11-09T04:21:06.033Z,0.00
2017-11-09T04:22:06.012Z,0.00
2017-11-09T04:23:05.992Z,0.00
2017-11-09T04:24:06.009Z,0.00
2017-11-09T04:25:05.956Z,0.00
2017-11-09T04:26:05.930Z,0.00
2017-11-09T04:27:05.922Z,0.00
2017-11-09T04:28:05.933Z,0.00
2017-11-09T04:29:05.870Z,0.00
2017-11-09T04:30:05.845Z,0.00
2017-11-09T04:31:05.828Z,0.00
2017-11-09T04:32:05.809Z,0.00
2017-11-09T04:33:05.825Z,0.00
2017-11-09T04:34:05.766Z,0.00
2017-11-09T04:35:05.747Z,0.00
2017-11-09T04:36:05.733Z,0.00
2017-11-09T04:37:16.544Z,0.00
2017-11-09T04:38:05.728Z,0.00
2017-11-09T04:39:05.667Z,0.00
2017-11-09T04:40:05.688Z,0.00
2017-11-09T04:41:05.639Z,0.00
2017-11-09T04:42:05.610Z,0.00
2017-11-09T04:43:05.588Z,0.00
2017-11-09T04:44:05.565Z,0.00
2017-11-09T04:45:05.588Z,0.00
2017-11-09T04:46:05.525Z,0.00
2017-11-09T04:47:05.505Z,0.00
2017-11-09T04:48:05.493Z,0.00
2017-11-09T04:49:05.464Z,0.00
2017-11-09T04:50:05.487Z,0.00
2017-11-09T04:51:05.430Z,0.00
2017-11-09T04:52:05.441Z,0.00
2017-11-09T04:53:05.444Z,0.00
2017-11-09T04:54:05.362Z,0.00
2017-11-09T04:55:05.350Z,0.00
2017-11-09T04:56:05.390Z,0.00
2017-11-09T04:57:05.310Z,0.00
2017-11-09T04:58:05.283Z,0.00
2017-11-09T04:59:05.281Z,0.00
2017-11-09T05:00:05.243Z,0.00
2017-11-09T05:01:05.263Z,0.00
2017-11-09T05:02:05.200Z,0.00
2017-11-09T05:03:05.183Z,0.00
2017-11-09T05:04:05.163Z,0.00
2017-11-09T05:05:05.143Z,0.00
2017-11-09T05:06:05.163Z,0.00
2017-11-09T05:07:05.101Z,0.00
2017-11-09T05:08:05.083Z,0.00
2017-11-09T05:09:05.065Z,0.00
2017-11-09T05:10:05.043Z,0.00
2017-11-09T05:11:05.060Z,0.00
2017-11-09T05:12:04.999Z,0.00
2017-11-09T05:13:04.983Z,0.00
2017-11-09T05:14:04.967Z,0.00
2017-11-09T05:15:04.976Z,0.00
2017-11-09T05:16:04.923Z,0.00
2017-11-09T05:17:04.937Z,0.00
2017-11-09T05:18:04.879Z,0.00
2017-11-09T05:19:04.863Z,0.00
2017-11-09T05:20:04.873Z,0.00
2017-11-09T05:21:04.863Z,0.00
2017-11-09T05:22:04.804Z,0.00
2017-11-09T05:23:04.836Z,0.00
2017-11-09T05:24:04.762Z,0.00
2017-11-09T05:25:04.740Z,0.00
2017-11-09T05:26:04.718Z,0.00
2017-11-09T05:27:04.702Z,0.00
2017-11-09T05:28:04.739Z,0.00
2017-11-09T05:29:04.660Z,0.00
2017-11-09T05:30:14.594Z,0.00
2017-11-09T05:31:04.622Z,0.00
2017-11-09T05:32:04.597Z,0.00
2017-11-09T05:33:04.614Z,0.00
2017-11-09T05:34:04.558Z,0.00
2017-11-09T05:35:04.570Z,0.00
2017-11-09T05:36:04.515Z,0.00
2017-11-09T05:37:04.511Z,0.00
2017-11-09T05:38:04.475Z,0.00
2017-11-09T05:39:04.494Z,0.00
2017-11-09T05:40:04.441Z,0.00
2017-11-09T05:41:04.415Z,0.00
2017-11-09T05:42:04.398Z,0.00
2017-11-09T05:43:04.372Z,0.00
2017-11-09T05:44:04.385Z,0.00
2017-11-09T05:45:04.333Z,0.00
2017-11-09T05:46:04.328Z,0.00
2017-11-09T05:47:04.339Z,0.00
2017-11-09T05:48:04.274Z,0.00
2017-11-09T05:49:04.252Z,0.00
2017-11-09T05:50:04.234Z,0.00
2017-11-09T05:51:04.211Z,0.00
2017-11-09T05:52:04.236Z,0.00
2017-11-09T05:53:04.172Z,0.00
2017-11-09T05:54:04.152Z,0.00
2017-11-09T05:55:04.146Z,0.00
2017-11-09T05:56:04.113Z,0.00
2017-11-09T05:57:04.135Z,0.00
2017-11-09T05:58:04.070Z,0.00
2017-11-09T05:59:04.051Z,0.00
2017-11-09T06:00:04.028Z,0.00
2017-11-09T06:01:04.008Z,0.00
2017-11-09T06:02:04.028Z,0.00
2017-11-09T06:03:03.968Z,0.00
2017-11-09T06:04:03.948Z,0.00
2017-11-09T06:05:03.928Z,0.00
2017-11-09T06:06:03.939Z,0.00
2017-11-09T06:07:03.887Z,0.00
2017-11-09T06:08:03.868Z,0.00
2017-11-09T06:09:03.867Z,0.00
2017-11-09T06:10:03.868Z,0.00
2017-11-09T06:11:03.805Z,4.00
2017-11-09T06:12:03.785Z,4.00
2017-11-09T06:13:03.765Z,0.00
2017-11-09T06:14:03.751Z,0.00
2017-11-09T06:15:03.776Z,0.00
2017-11-09T06:16:03.718Z,4.00
2017-11-09T06:17:03.689Z,4.00
2017-11-09T06:18:03.711Z,0.00
2017-11-09T06:19:03.765Z,4.00
2017-11-09T06:20:03.724Z,4.00
2017-11-09T06:21:03.611Z,8.00
2017-11-09T06:22:03.584Z,4.00
2017-11-09T06:23:03.564Z,8.00
2017-11-09T06:24:03.548Z,8.00
2017-11-09T06:25:11.679Z,12.00
2017-11-09T06:26:03.503Z,12.00
2017-11-09T06:27:03.483Z,16.00
2017-11-09T06:28:03.464Z,20.00
2017-11-09T06:29:03.445Z,24.00
2017-11-09T06:30:03.427Z,28.00
2017-11-09T06:31:03.441Z,32.00
2017-11-09T06:32:03.384Z,36.00
2017-11-09T06:33:03.363Z,36.00
2017-11-09T06:34:03.343Z,40.00
2017-11-09T06:35:03.320Z,48.00
2017-11-09T06:36:03.335Z,52.00
2017-11-09T06:37:03.281Z,60.00
2017-11-09T06:38:03.258Z,64.00
2017-11-09T06:39:03.276Z,68.00
2017-11-09T06:40:03.225Z,72.00
2017-11-09T06:41:03.202Z,64.00
2017-11-09T06:42:03.560Z,72.00
2017-11-09T06:43:03.155Z,88.00
2017-11-09T06:44:03.139Z,92.00
2017-11-09T06:45:03.116Z,92.00
2017-11-09T06:46:03.098Z,108.00
2017-11-09T06:47:03.118Z,124.00
2017-11-09T06:48:03.110Z,136.00
2017-11-09T06:49:03.059Z,136.00
2017-11-09T06:50:03.017Z,136.00
2017-11-09T06:51:02.999Z,132.00
2017-11-09T06:52:03.012Z,144.00
2017-11-09T06:53:02.966Z,164.00
2017-11-09T06:54:02.932Z,192.00
2017-11-09T06:55:02.915Z,212.00
2017-11-09T06:56:02.896Z,212.00
2017-11-09T06:57:02.906Z,248.00
2017-11-09T06:58:02.853Z,244.00
2017-11-09T06:59:02.881Z,240.00
2017-11-09T07:00:02.810Z,276.00
2017-11-09T07:01:02.796Z,300.00
2017-11-09T07:02:02.790Z,312.00
2017-11-09T07:03:02.752Z,340.00
2017-11-09T07:04:02.775Z,364.00
2017-11-09T07:05:02.712Z,344.00
2017-11-09T07:06:02.689Z,340.00
2017-11-09T07:07:02.673Z,388.00
2017-11-09T07:08:02.649Z,380.00
2017-11-09T07:09:02.670Z,416.00
2017-11-09T07:10:02.615Z,460.00
2017-11-09T07:11:02.587Z,492.00
2017-11-09T07:12:02.570Z,488.00
2017-11-09T07:13:02.549Z,536.00
2017-11-09T07:14:04.973Z,556.00
2017-11-09T07:15:02.525Z,540.00
2017-11-09T07:16:02.487Z,556.00
2017-11-09T07:17:02.466Z,652.00
2017-11-09T07:18:02.451Z,644.00
2017-11-09T07:19:02.426Z,668.00
2017-11-09T07:20:10.217Z,720.00
2017-11-09T07:21:10.245Z,724.00
2017-11-09T07:22:02.373Z,664.00
2017-11-09T07:23:02.343Z,696.00
2017-11-09T07:24:02.325Z,756.00
2017-11-09T07:25:02.304Z,740.00
2017-11-09T07:26:02.315Z,804.00
2017-11-09T07:27:02.261Z,820.00
2017-11-09T07:28:02.243Z,868.00
2017-11-09T07:29:02.222Z,976.00
2017-11-09T07:30:02.201Z,1072.00
2017-11-09T07:31:02.215Z,1136.00
2017-11-09T07:32:02.157Z,1092.00
2017-11-09T07:33:02.175Z,1024.00
2017-11-09T07:34:02.125Z,1012.00
2017-11-09T07:35:02.101Z,1016.00
2017-11-09T07:36:02.127Z,1024.00
2017-11-09T07:37:02.066Z,1088.00
2017-11-09T07:38:02.039Z,1120.00
2017-11-09T07:39:02.027Z,1204.00
2017-11-09T07:40:02.000Z,1232.00
2017-11-09T07:41:02.037Z,1220.00
2017-11-09T07:42:01.976Z,1236.00
2017-11-09T07:43:01.959Z,1336.00
2017-11-09T07:44:01.918Z,1368.00
2017-11-09T07:45:01.897Z,1408.00
2017-11-09T07:46:01.915Z,1520.00
2017-11-09T07:47:01.858Z,1456.00
2017-11-09T07:48:01.834Z,1460.00
2017-11-09T07:49:01.821Z,1432.00
2017-11-09T07:50:01.852Z,1412.00
2017-11-09T07:51:01.780Z,1440.00
2017-11-09T07:52:01.762Z,1572.00
2017-11-09T07:53:01.738Z,1788.00
2017-11-09T07:54:01.714Z,1684.00
2017-11-09T07:55:01.728Z,1756.00
2017-11-09T07:56:01.674Z,1784.00
2017-11-09T07:57:01.655Z,1656.00
2017-11-09T07:58:01.635Z,1492.00
2017-11-09T07:59:01.632Z,1712.00
2017-11-09T08:00:01.629Z,1944.00
2017-11-09T08:01:01.574Z,2192.00
2017-11-09T08:02:01.588Z,2080.00
2017-11-09T08:03:01.536Z,2176.00
2017-11-09T08:04:01.516Z,2120.00
2017-11-09T08:05:01.492Z,2248.00
2017-11-09T08:06:01.471Z,2120.00
2017-11-09T08:07:01.491Z,2068.00
2017-11-09T08:08:01.438Z,1952.00
2017-11-09T08:10:39.923Z,2056.00
2017-11-09T08:11:39.858Z,2000.00
2017-11-09T08:12:39.838Z,2096.00
2017-11-09T08:13:39.818Z,2120.00
2017-11-09T08:14:39.809Z,2020.00
2017-11-09T08:15:39.813Z,2240.00
2017-11-09T08:16:39.759Z,2184.00
2017-11-09T08:17:39.738Z,2092.00
2017-11-09T08:18:39.720Z,2040.00
2017-11-09T08:19:39.731Z,1828.00
2017-11-09T08:20:39.676Z,2040.00
2017-11-09T08:21:39.694Z,2068.00
2017-11-09T08:22:39.646Z,2092.00
2017-11-09T08:23:39.633Z,2084.00
2017-11-09T08:24:39.617Z,2028.00
2017-11-09T08:25:39.577Z,1896.00
2017-11-09T08:26:39.594Z,2028.00
2017-11-09T08:27:39.547Z,2008.00
2017-11-09T08:28:39.519Z,1760.00
2017-11-09T08:29:39.497Z,1704.00
2017-11-09T08:30:39.529Z,1624.00
2017-11-09T08:31:39.456Z,1660.00
2017-11-09T08:32:39.439Z,1620.00
2017-11-09T08:33:39.425Z,1600.00
2017-11-09T08:34:39.402Z,1744.00
2017-11-09T08:35:39.413Z,1896.00
2017-11-09T08:36:39.358Z,1916.00
2017-11-09T08:37:39.338Z,1864.00
2017-11-09T08:38:39.330Z,1964.00
2017-11-09T08:39:39.329Z,2424.00
2017-11-09T08:40:39.275Z,2504.00
2017-11-09T08:41:39.293Z,2312.00
2017-11-09T08:42:39.245Z,2652.00
2017-11-09T08:43:39.218Z,2304.00
2017-11-09T08:44:39.230Z,2604.00
2017-11-09T08:45:39.181Z,2728.00
2017-11-09T08:46:39.158Z,2968.00
2017-11-09T08:47:39.173Z,3516.00
2017-11-09T08:48:39.124Z,3380.00
2017-11-09T08:49:39.128Z,3660.00
2017-11-09T08:50:39.076Z,3628.00
2017-11-09T08:51:39.057Z,3776.00
2017-11-09T08:52:39.069Z,3776.00
2017-11-09T08:53:39.015Z,4004.00
2017-11-09T08:54:39.032Z,4772.00
2017-11-09T08:55:38.979Z,5492.00
2017-11-09T08:56:38.960Z,6136.00
2017-11-09T08:57:38.943Z,6328.00
2017-11-09T08:58:38.921Z,6652.00
2017-11-09T08:59:38.957Z,6788.00
2017-11-09T09:00:38.883Z,7172.00
2017-11-09T09:01:38.858Z,8308.00
2017-11-09T09:02:38.841Z,10160.00
2017-11-09T09:03:38.823Z,11812.00
2017-11-09T09:04:38.847Z,11876.00
2017-11-09T09:05:38.782Z,11804.00
2017-11-09T09:06:38.761Z,10352.00
2017-11-09T09:07:38.741Z,9792.00
2017-11-09T09:08:38.761Z,9828.00
2017-11-09T09:09:38.703Z,9520.00
2017-11-09T09:10:38.735Z,9920.00
2017-11-09T09:11:38.666Z,10560.00
2017-11-09T09:12:38.651Z,11216.00
2017-11-09T09:13:38.626Z,11772.00
2017-11-09T09:14:38.610Z,12552.00
2017-11-09T09:15:38.627Z,13248.00
2017-11-09T09:16:38.574Z,12224.00
2017-11-09T09:17:38.552Z,10472.00
2017-11-09T09:18:38.603Z,10100.00
2017-11-09T09:19:38.520Z,10524.00
2017-11-09T09:20:38.495Z,10984.00
2017-11-09T09:21:38.477Z,11320.00
2017-11-09T09:22:38.458Z,11452.00
2017-11-09T09:23:38.478Z,11944.00
2017-11-09T09:24:38.466Z,12132.00
2017-11-09T09:25:38.415Z,11940.00
2017-11-09T09:26:38.390Z,11744.00
2017-11-09T09:27:38.367Z,12420.00
2017-11-09T09:28:38.352Z,12624.00
2017-11-09T09:29:38.374Z,12392.00
2017-11-09T09:30:38.314Z,12584.00
2017-11-09T09:31:38.300Z,12048.00
2017-11-09T09:32:38.284Z,11460.00
2017-11-09T09:33:38.256Z,10544.00
2017-11-09T09:34:38.280Z,10276.00
2017-11-09T09:35:38.221Z,10288.00
2017-11-09T09:36:38.206Z,10708.00
2017-11-09T09:37:38.188Z,11240.00
2017-11-09T09:38:38.168Z,11744.00
2017-11-09T09:39:38.194Z,11192.00
2017-11-09T09:40:38.131Z,11912.00
2017-11-09T09:41:38.115Z,12176.00
2017-11-09T09:42:38.145Z,13376.00
2017-11-09T09:43:38.082Z,14252.00
2017-11-09T09:44:38.072Z,14220.00
2017-11-09T09:45:38.045Z,14324.00
2017-11-09T09:46:38.025Z,16104.00
2017-11-09T09:47:38.041Z,16148.00
2017-11-09T09:48:37.995Z,14608.00
2017-11-09T09:49:38.007Z,13496.00
2017-11-09T09:50:37.958Z,12824.00
2017-11-09T09:51:37.939Z,12684.00
2017-11-09T09:52:37.922Z,11952.00
2017-11-09T09:53:37.937Z,11092.00
2017-11-09T09:54:37.884Z,11196.00
2017-11-09T09:55:37.896Z,11332.00
2017-11-09T09:56:37.858Z,11608.00
2017-11-09T09:57:37.839Z,11836.00
2017-11-09T09:58:37.814Z,13524.00
2017-11-09T09:59:37.840Z,12052.00
2017-11-09T10:00:37.780Z,11204.00
2017-11-09T10:01:37.771Z,11700.00
2017-11-09T10:02:37.742Z,11032.00
2017-11-09T10:03:37.735Z,10096.00
2017-11-09T10:04:37.748Z,10736.00
2017-11-09T10:05:37.691Z,10128.00
2017-11-09T10:06:37.673Z,9976.00
2017-11-09T10:07:37.689Z,9312.00
2017-11-09T10:08:37.650Z,7100.00
2017-11-09T10:09:37.626Z,5680.00
2017-11-09T10:10:37.637Z,4948.00
2017-11-09T10:11:37.586Z,3820.00
2017-11-09T10:12:37.568Z,3512.00
2017-11-09T10:13:37.551Z,3996.00
2017-11-09T10:14:37.570Z,5056.00
2017-11-09T10:15:37.518Z,6268.00
2017-11-09T10:16:37.495Z,6688.00
2017-11-09T10:17:37.478Z,6280.00
2017-11-09T10:18:37.507Z,6464.00
2017-11-09T10:19:37.453Z,6476.00
2017-11-09T10:20:37.436Z,6556.00
2017-11-09T10:21:37.412Z,6904.00
2017-11-09T10:22:37.389Z,7272.00
2017-11-09T10:23:37.411Z,6864.00
2017-11-09T10:24:37.353Z,6964.00
2017-11-09T10:25:37.336Z,7020.00
2017-11-09T10:26:37.318Z,6864.00
2017-11-09T10:27:37.302Z,7464.00
2017-11-09T10:28:37.322Z,8368.00
2017-11-09T10:29:37.264Z,8392.00
2017-11-09T10:30:37.249Z,8236.00
2017-11-09T10:31:37.232Z,7672.00
2017-11-09T10:32:37.210Z,7368.00
2017-11-09T10:33:37.222Z,9612.00
2017-11-09T10:34:37.212Z,10828.00
2017-11-09T10:35:37.153Z,10972.00
2017-11-09T10:36:37.134Z,10260.00
2017-11-09T10:37:37.119Z,9180.00
2017-11-09T10:38:37.102Z,10020.00
2017-11-09T10:39:37.116Z,10336.00
2017-11-09T10:40:37.068Z,11480.00
2017-11-09T10:41:37.053Z,13708.00
2017-11-09T10:42:37.042Z,14328.00
2017-11-09T10:43:37.045Z,15128.00
2017-11-09T10:44:36.988Z,13144.00
2017-11-09T10:45:36.973Z,11364.00
2017-11-09T10:46:36.993Z,9672.00
2017-11-09T10:47:36.988Z,9076.00
2017-11-09T10:48:36.917Z,8356.00
2017-11-09T10:49:36.900Z,8456.00
2017-11-09T10:50:36.887Z,8404.00
2017-11-09T10:51:36.902Z,8124.00
2017-11-09T10:52:36.879Z,7324.00
2017-11-09T10:53:36.834Z,8324.00
2017-11-09T10:54:36.810Z,8788.00
2017-11-09T10:55:36.794Z,8524.00
2017-11-09T10:56:36.774Z,8032.00
2017-11-09T10:57:36.808Z,9244.00
2017-11-09T10:58:36.741Z,9676.00
2017-11-09T10:59:36.721Z,11040.00
2017-11-09T11:00:36.703Z,11856.00
2017-11-09T11:01:36.690Z,12484.00
2017-11-09T11:02:36.705Z,12000.00
2017-11-09T11:03:36.649Z,9960.00
2017-11-09T11:04:36.647Z,9420.00
2017-11-09T11:05:36.616Z,8216.00
2017-11-09T11:06:36.595Z,8848.00
2017-11-09T11:07:36.603Z,11076.00
2017-11-09T11:08:36.578Z,11188.00
2017-11-09T11:09:36.541Z,10340.00
2017-11-09T11:10:36.525Z,8756.00
2017-11-09T11:11:36.509Z,6820.00
2017-11-09T11:12:36.525Z,5636.00
2017-11-09T11:13:36.472Z,4616.00
2017-11-09T11:14:36.456Z,4828.00
2017-11-09T11:15:36.439Z,4996.00
2017-11-09T11:16:36.419Z,4704.00
2017-11-09T11:17:36.453Z,3656.00
2017-11-09T11:18:36.381Z,3560.00
2017-11-09T11:19:36.369Z,4188.00
2017-11-09T11:20:36.346Z,4796.00
2017-11-09T11:21:36.326Z,5532.00
2017-11-09T11:22:36.352Z,6380.00
2017-11-09T11:23:36.297Z,7680.00
2017-11-09T11:24:36.278Z,7732.00
2017-11-09T11:25:36.257Z,8300.00
2017-11-09T11:26:36.240Z,8852.00
2017-11-09T11:27:36.264Z,9832.00
2017-11-09T11:28:36.200Z,9780.00
2017-11-09T11:29:36.181Z,9664.00
2017-11-09T11:30:36.201Z,9088.00
2017-11-09T11:31:36.148Z,8612.00
2017-11-09T11:32:36.128Z,8352.00
2017-11-09T11:33:36.126Z,7508.00
2017-11-09T11:34:36.129Z,7464.00
2017-11-09T11:35:36.092Z,8068.00
2017-11-09T11:36:36.088Z,8636.00
2017-11-09T11:37:36.037Z,7708.00
2017-11-09T11:38:36.031Z,7272.00
2017-11-09T11:39:36.035Z,7104.00
2017-11-09T11:40:35.981Z,5780.00
2017-11-09T11:41:35.969Z,5500.00
2017-11-09T11:42:35.945Z,7464.00
2017-11-09T11:43:35.941Z,9072.00
2017-11-09T11:44:35.943Z,10792.00
2017-11-09T11:45:35.897Z,11292.00
2017-11-09T11:46:35.874Z,11976.00
2017-11-09T11:47:35.888Z,11304.00
2017-11-09T11:48:36.527Z,10892.00
2017-11-09T11:49:35.821Z,10500.00
2017-11-09T11:50:35.799Z,10812.00
2017-11-09T11:51:35.781Z,12828.00
2017-11-09T11:52:35.814Z,12236.00
2017-11-09T11:53:35.745Z,12284.00
2017-11-09T11:54:35.735Z,12708.00
2017-11-09T11:55:35.710Z,11728.00
2017-11-09T11:56:35.691Z,10972.00
2017-11-09T11:57:35.713Z,9000.00
2017-11-09T11:58:35.656Z,7400.00
2017-11-09T11:59:35.676Z,7188.00
2017-11-09T12:00:35.665Z,8000.00
2017-11-09T12:01:35.603Z,8040.00
2017-11-09T12:02:35.586Z,7848.00
2017-11-09T12:03:35.567Z,7552.00
2017-11-09T12:04:35.553Z,7076.00
2017-11-09T12:05:35.582Z,7172.00
2017-11-09T12:06:35.513Z,7532.00
2017-11-09T12:07:35.501Z,7912.00
2017-11-09T12:08:35.480Z,7436.00
2017-11-09T12:09:35.504Z,6592.00
2017-11-09T12:10:35.464Z,5660.00
2017-11-09T12:11:35.429Z,5184.00
2017-11-09T12:12:35.404Z,5812.00
2017-11-09T12:13:35.388Z,6652.00
2017-11-09T12:14:35.401Z,6420.00
2017-11-09T12:15:35.350Z,6676.00
2017-11-09T12:16:35.370Z,6228.00
2017-11-09T12:17:35.317Z,6512.00
2017-11-09T12:18:35.306Z,6332.00
2017-11-09T12:19:35.279Z,5540.00
2017-11-09T12:20:35.262Z,4960.00
2017-11-09T12:21:35.274Z,4604.00
2017-11-09T12:22:35.285Z,4128.00
2017-11-09T12:23:35.217Z,4116.00
2017-11-09T12:24:35.196Z,3960.00
2017-11-09T12:25:35.175Z,4160.00
2017-11-09T12:26:35.150Z,5156.00
2017-11-09T12:27:35.167Z,5884.00
2017-11-09T12:28:35.158Z,6992.00
2017-11-09T12:29:35.117Z,7052.00
2017-11-09T12:30:35.081Z,7660.00
2017-11-09T12:31:35.057Z,7800.00
2017-11-09T12:32:35.042Z,7380.00
2017-11-09T12:33:35.065Z,6848.00
2017-11-09T12:34:35.006Z,6228.00
2017-11-09T12:35:34.987Z,7120.00
2017-11-09T12:36:34.973Z,6900.00
2017-11-09T12:37:34.948Z,6880.00
2017-11-09T12:38:34.968Z,6408.00
2017-11-09T12:39:34.916Z,7324.00
2017-11-09T12:40:34.897Z,6968.00
2017-11-09T12:41:34.922Z,7388.00
2017-11-09T12:42:34.861Z,7636.00
2017-11-09T12:43:34.840Z,8464.00